Time;durP1;ratioP1;P1;durP2;ratioP2;P2;SDS_P1;SDS_P2;PMS_P1;PMS_P2;Temp;Humidity;BMP_temperature;BMP_pressure;BME280_temperature;BME280_humidity;BME280_pressure;Samples;Min_cycle;Max_cycle;Signal;HPM_P1;HPM_P2
2022/04/04 00:04:44;;;;;;;9.75;3.22;;;0.50;99.90;;;;;;10419292;28;20396;-64
2022/04/04 00:09:46;;;;;;;9.43;3.85;;;0.50;99.90;;;;;;10412732;28;20495;-64
2022/04/04 00:14:49;;;;;;;11.10;3.53;;;0.50;99.90;;;;;;10423398;28;20064;-64
2022/04/04 00:19:50;;;;;;;11.20;3.78;;;0.40;99.90;;;;;;10413498;28;20061;-64
2022/04/04 00:24:52;;;;;;;6.45;3.28;;;0.40;99.90;;;;;;10411728;28;20053;-64
2022/04/04 00:29:54;;;;;;;6.20;3.42;;;0.50;99.90;;;;;;10411031;28;20046;-63
2022/04/04 00:34:56;;;;;;;6.38;3.05;;;0.40;99.90;;;;;;10417735;28;20095;-63
2022/04/04 00:39:57;;;;;;;7.90;3.75;;;0.40;99.90;;;;;;10420690;28;20061;-64
2022/04/04 00:45:00;;;;;;;6.82;3.78;;;0.40;99.90;;;;;;10408530;28;20499;-65
2022/04/04 00:50:02;;;;;;;9.68;4.90;;;0.50;99.90;;;;;;10413090;28;20099;-65
2022/04/04 00:55:07;;;;;;;9.50;4.82;;;0.80;99.90;;;;;;10415545;28;20106;-64
2022/04/04 01:00:11;;;;;;;6.65;4.28;;;1.00;99.10;;;;;;10412058;28;20111;-64
2022/04/04 01:05:13;;;;;;;11.07;5.53;;;1.00;98.00;;;;;;10412297;28;20056;-65
2022/04/04 01:10:14;;;;;;;13.57;5.18;;;1.10;96.50;;;;;;10413225;28;20068;-64
2022/04/04 01:15:16;;;;;;;8.02;4.70;;;1.10;95.80;;;;;;10410185;28;20107;-64
2022/04/04 01:20:18;;;;;;;6.78;4.78;;;1.20;95.40;;;;;;10418115;28;20190;-64
2022/04/04 01:25:26;;;;;;;8.10;4.80;;;1.10;96.00;;;;;;10404958;28;20102;-63
2022/04/04 01:30:27;;;;;;;10.98;5.03;;;1.10;95.90;;;;;;10394858;28;20045;-64
2022/04/04 01:35:29;;;;;;;11.18;5.70;;;1.00;95.70;;;;;;10401511;28;20041;-64
2022/04/04 01:40:31;;;;;;;8.73;5.55;;;1.00;95.90;;;;;;10410811;28;20088;-64
2022/04/04 01:50:53;;;;;;;12.25;5.13;;;1.10;96.90;;;;;;10409593;28;20053;-64
2022/04/04 01:55:58;;;;;;;13.00;6.10;;;1.00;96.80;;;;;;10413063;28;20123;-65
2022/04/04 02:01:13;;;;;;;10.77;5.50;;;1.00;97.20;;;;;;10413196;28;20045;-64
2022/04/04 02:06:15;;;;;;;9.45;5.32;;;0.90;96.70;;;;;;10408949;28;20049;-63
2022/04/04 02:11:19;;;;;;;12.50;6.40;;;0.90;97.00;;;;;;10393032;28;20068;-65
2022/04/04 02:16:21;;;;;;;9.38;5.18;;;0.90;97.20;;;;;;10406502;28;20049;-65
2022/04/04 02:21:23;;;;;;;9.80;5.43;;;0.90;97.40;;;;;;10413030;28;20067;-65
2022/04/04 02:26:25;;;;;;;10.73;5.43;;;0.80;97.50;;;;;;10410432;28;20076;-65
2022/04/04 02:31:26;;;;;;;9.82;5.68;;;0.90;97.50;;;;;;10410512;28;20052;-65
2022/04/04 02:36:28;;;;;;;13.85;5.60;;;0.90;97.70;;;;;;10409342;28;20099;-65
2022/04/04 02:41:30;;;;;;;9.25;5.43;;;0.80;98.10;;;;;;10410086;28;20380;-65
2022/04/04 02:46:31;;;;;;;11.20;4.95;;;0.80;97.80;;;;;;10402600;28;20057;-66
2022/04/04 02:51:33;;;;;;;10.93;5.40;;;0.80;97.80;;;;;;10404817;28;20057;-65
2022/04/04 02:56:39;;;;;;;28.02;7.43;;;0.80;96.90;;;;;;10413287;28;20053;-66
2022/04/04 03:01:48;;;;;;;11.38;5.68;;;0.70;96.60;;;;;;10407585;28;20107;-64
2022/04/04 03:06:50;;;;;;;10.70;5.20;;;0.70;97.20;;;;;;10404609;28;20080;-65
2022/04/04 03:11:52;;;;;;;11.35;4.80;;;0.60;97.50;;;;;;10410100;28;20096;-65
2022/04/04 03:16:53;;;;;;;10.68;4.70;;;0.60;98.40;;;;;;10413744;28;20052;-64
2022/04/04 03:21:56;;;;;;;10.48;4.60;;;0.50;98.60;;;;;;10418736;28;20049;-65
2022/04/04 03:26:58;;;;;;;10.52;5.13;;;0.50;98.70;;;;;;10417208;28;20055;-64
2022/04/04 03:31:59;;;;;;;14.63;4.93;;;0.40;99.40;;;;;;10420369;28;20051;-65
2022/04/04 03:37:01;;;;;;;10.05;4.97;;;0.40;99.30;;;;;;10417333;28;20049;-63
2022/04/04 03:42:03;;;;;;;9.45;5.10;;;0.40;99.40;;;;;;10422498;28;20049;-63
2022/04/04 03:47:07;;;;;;;9.48;4.93;;;0.40;99.90;;;;;;10422814;28;20053;-64
2022/04/04 03:52:09;;;;;;;10.05;5.15;;;0.50;99.90;;;;;;10420818;28;20295;-64
2022/04/04 03:57:11;;;;;;;12.15;4.93;;;0.50;99.90;;;;;;10421442;28;20057;-64
2022/04/04 04:02:13;;;;;;;9.00;5.38;;;0.50;99.90;;;;;;10421592;28;20448;-64
2022/04/04 04:07:16;;;;;;;12.00;5.22;;;0.50;99.60;;;;;;10428373;28;20055;-64
2022/04/04 04:12:18;;;;;;;11.30;5.13;;;0.50;99.90;;;;;;10421436;28;20063;-64
2022/04/04 04:17:21;;;;;;;14.27;5.05;;;0.50;99.90;;;;;;10416112;28;20107;-65
2022/04/04 04:22:23;;;;;;;8.88;5.43;;;0.50;99.90;;;;;;10414211;28;20131;-63
2022/04/04 04:27:25;;;;;;;10.23;4.90;;;0.40;99.90;;;;;;10414638;28;20041;-63
2022/04/04 04:32:27;;;;;;;12.60;5.43;;;0.40;99.90;;;;;;10405146;28;20553;-63
2022/04/04 04:37:29;;;;;;;11.75;6.43;;;0.40;99.90;;;;;;10406848;28;20509;-64
2022/04/04 04:42:33;;;;;;;13.68;6.18;;;0.30;99.90;;;;;;10409907;28;20056;-65
2022/04/04 04:47:35;;;;;;;12.27;5.65;;;0.30;99.90;;;;;;10412332;28;20100;-65
2022/04/04 04:52:36;;;;;;;17.75;6.63;;;0.30;99.90;;;;;;10417312;28;20041;-65
2022/04/04 04:57:38;;;;;;;12.60;6.68;;;0.20;99.90;;;;;;10419253;28;20106;-62
2022/04/04 05:02:40;;;;;;;11.48;6.45;;;0.20;99.90;;;;;;10414931;28;20100;-62
2022/04/04 05:07:42;;;;;;;11.13;5.63;;;0.20;99.90;;;;;;10413394;28;20045;-61
2022/04/04 05:12:43;;;;;;;14.55;5.25;;;0.20;99.90;;;;;;10420644;28;20105;-60
2022/04/04 05:17:45;;;;;;;13.32;6.32;;;0.30;99.90;;;;;;10404460;28;20055;-60
2022/04/04 05:22:47;;;;;;;13.23;5.30;;;0.30;99.90;;;;;;10412455;28;20065;-60
2022/04/04 05:27:50;;;;;;;10.73;5.78;;;0.30;99.90;;;;;;10416740;28;20103;-61
2022/04/04 05:32:52;;;;;;;10.20;4.95;;;0.30;99.90;;;;;;10411182;28;20099;-61
2022/04/04 05:37:54;;;;;;;14.27;7.20;;;0.30;99.90;;;;;;10408542;28;20057;-61
2022/04/04 05:42:57;;;;;;;14.82;6.10;;;0.30;99.90;;;;;;10409343;28;20056;-61
2022/04/04 05:47:58;;;;;;;11.45;5.63;;;0.40;99.90;;;;;;10412208;28;20056;-61
2022/04/04 05:53:00;;;;;;;11.45;6.28;;;0.40;99.90;;;;;;10411884;28;20712;-60
2022/04/04 05:58:02;;;;;;;11.30;6.05;;;0.40;99.90;;;;;;10409357;28;20080;-60
2022/04/04 06:03:03;;;;;;;9.85;5.72;;;0.50;99.90;;;;;;10408265;28;20102;-60
2022/04/04 06:08:05;;;;;;;10.13;5.53;;;0.50;99.90;;;;;;10406603;28;20071;-61
2022/04/04 06:13:07;;;;;;;9.73;5.25;;;0.50;99.90;;;;;;10409970;28;20482;-61
2022/04/04 06:18:11;;;;;;;12.95;5.90;;;0.60;99.90;;;;;;10415173;28;20075;-60
2022/04/04 06:23:12;;;;;;;10.73;6.45;;;0.60;99.90;;;;;;10411381;28;20542;-60
2022/04/04 06:28:14;;;;;;;16.05;5.93;;;0.70;99.90;;;;;;10414157;28;20053;-61
2022/04/04 06:33:16;;;;;;;9.10;4.38;;;0.80;99.90;;;;;;10414554;28;20712;-61
2022/04/04 06:38:18;;;;;;;11.80;5.65;;;0.80;99.90;;;;;;10410131;28;20063;-61
2022/04/04 06:43:20;;;;;;;11.23;5.85;;;0.80;99.90;;;;;;10408902;28;20056;-61
2022/04/04 06:48:23;;;;;;;9.43;6.00;;;0.90;99.90;;;;;;10412016;28;20037;-60
2022/04/04 06:53:25;;;;;;;16.02;6.20;;;1.00;99.90;;;;;;10418765;28;20041;-61
2022/04/04 06:58:27;;;;;;;9.13;5.38;;;1.10;99.90;;;;;;10419960;28;20647;-61
2022/04/04 07:03:29;;;;;;;10.27;5.03;;;1.30;99.90;;;;;;10414021;28;20056;-61
2022/04/04 07:08:33;;;;;;;10.98;5.45;;;1.30;98.10;;;;;;10415675;28;20041;-63
2022/04/04 07:13:38;;;;;;;10.20;5.32;;;1.50;96.20;;;;;;10416223;28;20111;-63
2022/04/04 07:18:41;;;;;;;14.75;6.68;;;1.70;95.90;;;;;;10415155;28;20048;-62
2022/04/04 07:23:42;;;;;;;15.02;5.28;;;1.80;93.90;;;;;;10408685;28;20519;-62
2022/04/04 07:28:47;;;;;;;13.45;5.82;;;1.90;91.60;;;;;;10418601;28;20048;-62
2022/04/04 07:33:49;;;;;;;8.40;4.47;;;2.00;91.50;;;;;;10420769;28;20099;-62
2022/04/04 07:38:52;;;;;;;13.05;5.85;;;2.20;90.10;;;;;;10420197;28;20126;-62
2022/04/04 07:43:53;;;;;;;10.35;5.15;;;2.30;89.20;;;;;;10426115;28;20103;-61
2022/04/04 07:48:56;;;;;;;10.18;6.10;;;2.30;87.70;;;;;;10416757;28;20099;-65
2022/04/04 07:53:58;;;;;;;9.55;4.68;;;2.50;87.50;;;;;;10412967;28;20103;-61
2022/04/04 07:59:00;;;;;;;16.90;6.95;;;2.60;86.40;;;;;;10416575;28;20107;-62
2022/04/04 08:04:08;;;;;;;;;;;2.60;84.50;;;;;;10416027;28;20053;-63
2022/04/04 08:09:09;;;;;;;10.07;5.28;;;2.80;85.20;;;;;;10414343;28;19928;-62
2022/04/04 08:14:11;;;;;;;9.10;4.78;;;3.00;83.70;;;;;;10416908;28;20053;-62
2022/04/04 08:19:13;;;;;;;7.65;4.68;;;3.20;80.90;;;;;;10416479;28;20442;-61
2022/04/04 08:24:16;;;;;;;9.27;4.45;;;3.40;78.90;;;;;;10417105;28;20056;-62
2022/04/04 08:29:18;;;;;;;7.10;4.55;;;3.50;78.70;;;;;;10416645;28;20054;-62
2022/04/04 08:34:19;;;;;;;7.70;4.97;;;3.70;78.40;;;;;;10418963;28;20057;-61
2022/04/04 08:39:21;;;;;;;6.30;4.53;;;4.10;77.50;;;;;;10409906;28;20053;-61
2022/04/04 08:44:24;;;;;;;7.47;4.50;;;4.20;76.40;;;;;;10413054;28;20106;-61
2022/04/04 08:49:27;;;;;;;9.05;4.82;;;4.40;74.80;;;;;;10414165;28;20052;-60
2022/04/04 08:54:28;;;;;;;6.47;4.28;;;4.70;75.40;;;;;;10411631;28;20041;-61
2022/04/04 08:59:30;;;;;;;10.00;5.03;;;5.10;73.00;;;;;;10407978;28;20060;-62
2022/04/04 09:04:33;;;;;;;7.55;4.03;;;5.30;72.10;;;;;;10413044;28;20529;-60
2022/04/04 09:09:42;;;;;;;6.43;4.00;;;5.30;71.00;;;;;;10410245;28;20049;-61
2022/04/04 09:14:56;;;;;;;6.25;4.05;;;5.60;69.80;;;;;;10413240;28;20053;-61
2022/04/04 09:20:03;;;;;;;6.43;3.83;;;5.90;69.50;;;;;;10417972;28;20103;-61
2022/04/04 09:25:05;;;;;;;5.97;3.88;;;6.00;68.30;;;;;;10411564;28;20065;-61
2022/04/04 09:30:19;;;;;;;7.15;3.58;;;6.20;67.30;;;;;;10413319;28;20055;-60
2022/04/04 09:35:21;;;;;;;6.40;3.55;;;6.60;66.40;;;;;;10413291;28;20079;-62
2022/04/04 09:40:25;;;;;;;4.90;1.92;;;7.00;65.90;;;;;;10411575;28;20053;-61
2022/04/04 09:45:31;;;;;;;3.47;2.38;;;7.30;60.90;;;;;;10409820;28;20110;-62
2022/04/04 09:50:50;;;;;;;7.97;3.00;;;7.60;59.00;;;;;;10405696;28;20052;-62
2022/04/04 09:55:55;;;;;;;4.07;2.30;;;8.00;57.80;;;;;;10416482;28;20049;-62
2022/04/04 10:01:00;;;;;;;3.55;2.42;;;8.10;57.00;;;;;;10413157;28;20048;-63
2022/04/04 10:06:08;;;;;;;4.53;2.60;;;8.20;56.30;;;;;;10406456;28;20053;-62
2022/04/04 10:11:10;;;;;;;5.20;2.58;;;8.20;56.70;;;;;;10409204;28;20133;-63
2022/04/04 10:16:12;;;;;;;2.47;2.28;;;8.30;55.10;;;;;;10412886;28;20511;-63
2022/04/04 10:21:14;;;;;;;3.90;2.35;;;8.50;57.90;;;;;;10413753;28;20041;-64
2022/04/04 10:26:19;;;;;;;3.58;1.60;;;8.60;59.10;;;;;;10410219;28;20064;-62
2022/04/04 10:31:28;;;;;;;2.22;1.75;;;8.40;58.20;;;;;;10413615;28;20479;-63
2022/04/04 10:36:29;;;;;;;3.55;2.00;;;8.60;59.20;;;;;;10412927;28;20052;-62
2022/04/04 10:41:32;;;;;;;3.63;2.08;;;8.70;59.70;;;;;;10412852;28;20045;-63
2022/04/04 10:46:34;;;;;;;4.82;2.03;;;8.90;58.90;;;;;;10405850;28;20152;-62
2022/04/04 10:51:37;;;;;;;2.78;1.48;;;9.20;58.60;;;;;;10416697;28;20036;-63
2022/04/04 10:56:40;;;;;;;1.83;1.50;;;9.20;57.60;;;;;;10411208;28;20045;-62
2022/04/04 11:01:50;;;;;;;3.78;2.00;;;9.20;58.10;;;;;;10409497;28;20452;-62
2022/04/04 11:13:00;;;;;;;6.07;2.15;;;9.20;58.00;;;;;;10406198;28;20049;-62
2022/04/04 11:18:03;;;;;;;3.00;1.50;;;9.10;57.40;;;;;;10406014;28;20053;-62
2022/04/04 11:23:09;;;;;;;1.98;1.48;;;9.00;56.50;;;;;;10401319;28;20511;-62
2022/04/04 11:28:15;;;;;;;4.17;2.03;;;8.90;56.50;;;;;;10413129;28;20052;-63
2022/04/04 11:33:22;;;;;;;4.40;2.38;;;9.10;56.20;;;;;;10405647;28;20053;-62
2022/04/04 11:38:25;;;;;;;2.42;1.45;;;9.10;55.80;;;;;;10415937;28;20053;-63
2022/04/04 11:43:31;;;;;;;2.15;1.90;;;9.30;55.70;;;;;;10412411;28;20446;-62
2022/04/04 11:48:39;;;;;;;3.60;1.73;;;9.50;55.70;;;;;;10409463;28;20049;-62
2022/04/04 11:53:43;;;;;;;3.38;1.58;;;9.50;55.50;;;;;;10420213;28;20049;-62
2022/04/04 11:58:54;;;;;;;3.22;1.48;;;9.70;53.90;;;;;;10415865;28;20048;-62
2022/04/04 12:03:56;;;;;;;1.85;1.40;;;9.60;53.70;;;;;;10410764;28;20057;-62
2022/04/04 12:09:03;;;;;;;1.83;1.27;;;9.50;53.90;;;;;;10412654;28;20053;-62
2022/04/04 12:14:11;;;;;;;3.88;1.65;;;9.70;54.30;;;;;;10406411;28;20507;-63
2022/04/04 12:19:12;;;;;;;2.85;1.63;;;9.70;53.90;;;;;;10412530;28;20050;-63
2022/04/04 12:29:40;;;;;;;3.80;1.50;;;9.60;52.90;;;;;;10413387;28;20103;-62
2022/04/04 12:35:13;;;;;;;7.15;1.63;;;9.50;53.60;;;;;;10413780;28;20091;-63
2022/04/04 12:40:23;;;;;;;4.95;1.73;;;9.30;53.30;;;;;;10413853;28;20046;-62
2022/04/04 12:45:31;;;;;;;2.05;1.40;;;9.40;53.50;;;;;;10417354;28;20056;-61
2022/04/04 12:50:42;;;;;;;7.03;1.67;;;9.50;53.40;;;;;;10408187;28;20364;-64
2022/04/04 12:56:06;;;;;;;2.55;1.23;;;9.40;52.70;;;;;;10403438;28;20045;-63
2022/04/04 13:01:17;;;;;;;2.70;1.70;;;9.40;52.50;;;;;;10408809;28;20079;-64
2022/04/04 13:06:20;;;;;;;3.55;1.48;;;9.50;53.40;;;;;;10411472;28;20137;-64
2022/04/04 13:11:24;;;;;;;4.40;1.58;;;9.20;48.50;;;;;;10404288;28;20499;-62
2022/04/04 13:16:31;;;;;;;3.50;1.35;;;9.30;48.60;;;;;;10411713;28;20065;-62
2022/04/04 13:21:37;;;;;;;7.95;1.58;;;9.10;51.60;;;;;;10415491;28;20099;-62
2022/04/04 13:26:40;;;;;;;3.75;1.90;;;8.80;52.90;;;;;;10414224;28;20384;-62
2022/04/04 13:31:46;;;;;;;2.08;1.58;;;8.80;51.50;;;;;;10406791;28;20038;-62
2022/04/04 13:36:48;;;;;;;1.65;0.95;;;8.90;51.20;;;;;;10416743;28;20049;-62
2022/04/04 13:41:49;;;;;;;2.03;1.42;;;8.90;52.00;;;;;;10410279;28;20053;-62
2022/04/04 13:46:51;;;;;;;1.67;1.10;;;8.80;53.10;;;;;;10404906;28;20106;-62
2022/04/04 13:51:53;;;;;;;3.63;1.90;;;8.70;53.90;;;;;;10412016;28;20492;-62
2022/04/04 13:56:55;;;;;;;7.40;1.70;;;8.70;54.00;;;;;;10411412;28;20049;-64
2022/04/04 14:02:01;;;;;;;6.20;2.33;;;8.60;56.40;;;;;;10409507;28;20049;-64
2022/04/04 14:07:05;;;;;;;7.75;1.67;;;8.40;58.30;;;;;;10408356;28;20037;-65
2022/04/04 14:12:07;;;;;;;3.78;2.65;;;8.20;59.20;;;;;;10415609;28;20057;-64
2022/04/04 14:17:09;;;;;;;4.40;2.13;;;8.20;59.80;;;;;;10418046;28;20041;-64
2022/04/04 14:22:13;;;;;;;5.32;2.55;;;8.20;59.50;;;;;;10413577;28;20049;-65
2022/04/04 14:27:15;;;;;;;2.55;2.00;;;8.20;61.10;;;;;;10408908;28;20045;-65
2022/04/04 14:32:18;;;;;;;6.38;2.58;;;8.20;61.10;;;;;;10417832;28;20140;-65
2022/04/04 14:37:19;;;;;;;6.75;2.72;;;8.30;61.70;;;;;;10414942;28;20061;-65
2022/04/04 14:42:21;;;;;;;4.60;2.38;;;8.10;63.20;;;;;;10405358;28;20049;-64
2022/04/04 14:47:23;;;;;;;5.47;2.55;;;8.00;64.40;;;;;;10466234;22;20543;-92
2022/04/04 14:52:30;;;;;;;2.60;1.92;;;8.00;65.40;;;;;;10435149;28;20108;-93
2022/04/04 14:57:32;;;;;;;3.55;2.83;;;7.90;66.70;;;;;;10448567;28;20045;-92
2022/04/04 15:02:36;;;;;;;3.88;2.17;;;7.70;68.90;;;;;;10434310;28;20474;-91
2022/04/04 15:07:58;;;;;;;3.05;1.60;;;7.70;69.40;;;;;;10479308;28;20515;-91
2022/04/04 15:13:00;;;;;;;4.72;2.17;;;7.70;71.00;;;;;;10430886;28;20213;-92
2022/04/04 15:18:02;;;;;;;3.42;1.95;;;7.40;73.30;;;;;;10423480;28;20050;-92
2022/04/04 15:23:11;;;;;;;3.30;2.38;;;7.40;73.50;;;;;;10413145;28;20450;-92
2022/04/04 15:28:14;;;;;;;3.85;2.10;;;7.40;72.40;;;;;;10444055;28;20129;-91
2022/04/04 15:33:16;;;;;;;6.03;2.03;;;7.50;71.70;;;;;;10440371;28;20052;-91
2022/04/04 15:38:21;;;;;;;6.97;2.92;;;7.60;70.80;;;;;;10427917;28;20121;-92
2022/04/04 15:43:24;;;;;;;6.18;2.45;;;7.60;70.60;;;;;;10429140;28;20081;-92
2022/04/04 15:48:33;;;;;;;6.80;2.70;;;7.60;70.90;;;;;;10418528;28;20051;-90
2022/04/04 15:53:37;;;;;;;2.00;1.45;;;7.70;71.70;;;;;;10388783;28;20049;-92
2022/04/04 15:58:39;;;;;;;7.82;3.28;;;7.60;71.90;;;;;;10433832;28;20045;-91
2022/04/04 16:03:42;;;;;;;5.82;3.08;;;7.60;72.00;;;;;;10427689;28;20143;-91
2022/04/04 16:08:45;;;;;;;5.22;2.92;;;7.70;72.40;;;;;;10342202;28;20056;-92
2022/04/04 16:13:48;;;;;;;3.75;2.47;;;7.60;72.30;;;;;;10444300;28;20045;-92
2022/04/04 16:18:50;;;;;;;4.88;2.83;;;7.60;72.50;;;;;;10393535;28;20065;-92
2022/04/04 16:23:52;;;;;;;4.40;3.22;;;7.60;72.50;;;;;;10459273;28;21928;-91
2022/04/04 16:28:55;;;;;;;6.70;2.88;;;7.60;72.90;;;;;;10431520;28;20045;-93
2022/04/04 16:33:57;;;;;;;6.22;2.85;;;7.50;72.50;;;;;;10424660;28;20049;-92
2022/04/04 16:38:59;;;;;;;4.82;2.28;;;7.60;72.10;;;;;;10417035;28;20454;-91
2022/04/04 16:44:01;;;;;;;3.78;2.50;;;7.60;72.50;;;;;;10467537;28;20048;-91
2022/04/04 16:49:04;;;;;;;5.80;1.98;;;7.60;72.60;;;;;;10418223;28;20085;-92
2022/04/04 16:54:06;;;;;;;3.22;2.58;;;7.60;72.80;;;;;;10434215;28;20049;-92
2022/04/04 16:59:08;;;;;;;3.20;1.67;;;7.60;73.10;;;;;;10424153;28;20048;-91
2022/04/04 17:04:19;;;;;;;2.83;1.98;;;7.50;73.40;;;;;;10429182;28;20052;-91
2022/04/04 17:09:21;;;;;;;4.95;2.08;;;7.50;73.80;;;;;;10417579;28;20044;-92
2022/04/04 17:14:23;;;;;;;2.78;1.42;;;7.40;75.00;;;;;;10441445;28;20064;-91
2022/04/04 17:19:25;;;;;;;3.60;1.92;;;7.40;75.60;;;;;;10423621;28;20531;-91
2022/04/04 17:24:28;;;;;;;8.77;2.38;;;7.30;76.90;;;;;;10429140;28;20095;-92
2022/04/04 17:29:30;;;;;;;2.40;1.50;;;7.20;77.80;;;;;;10418873;28;20103;-91
2022/04/04 17:34:33;;;;;;;9.43;2.58;;;7.10;78.70;;;;;;10438708;28;20036;-92
2022/04/04 17:39:34;;;;;;;4.97;2.13;;;7.00;79.90;;;;;;10400461;28;20049;-90
2022/04/04 17:44:38;;;;;;;6.88;2.75;;;7.00;80.20;;;;;;10444110;28;20040;-91
2022/04/04 17:49:40;;;;;;;3.88;2.70;;;6.90;80.70;;;;;;10415658;28;20065;-91
2022/04/04 17:54:47;;;;;;;3.40;1.77;;;6.90;81.60;;;;;;10427223;28;20049;-91
2022/04/04 17:59:51;;;;;;;6.10;2.70;;;6.90;82.20;;;;;;10407118;28;20128;-91
2022/04/04 18:04:54;;;;;;;3.92;2.28;;;6.90;82.50;;;;;;10402253;28;20056;-90
2022/04/04 18:09:56;;;;;;;5.50;2.58;;;6.80;83.40;;;;;;10421884;28;20049;-88
2022/04/04 18:15:19;;;;;;;4.72;2.30;;;6.80;84.70;;;;;;10416430;28;20045;-89
2022/04/04 18:20:21;;;;;;;4.32;2.50;;;6.70;86.40;;;;;;10395768;28;20561;-89
2022/04/04 18:25:24;;;;;;;5.25;2.63;;;6.60;89.00;;;;;;10367784;28;20169;-86
2022/04/04 18:30:29;;;;;;;5.22;2.92;;;6.60;90.60;;;;;;10340866;28;20063;-89
2022/04/04 18:35:31;;;;;;;5.07;2.75;;;6.50;91.70;;;;;;10371191;28;20047;-89
2022/04/04 18:40:33;;;;;;;8.40;3.45;;;6.40;92.70;;;;;;10431655;28;20049;-90
2022/04/04 18:45:36;;;;;;;4.93;2.78;;;6.40;93.40;;;;;;10444732;28;20068;-90
2022/04/04 18:50:40;;;;;;;6.60;2.95;;;6.40;93.60;;;;;;10464235;28;20099;-90
2022/04/04 18:55:42;;;;;;;5.03;3.42;;;6.40;93.50;;;;;;10410936;28;20503;-91
2022/04/04 19:00:44;;;;;;;7.43;3.30;;;6.40;93.60;;;;;;10407656;28;20280;-91
2022/04/04 19:05:46;;;;;;;5.20;3.42;;;6.40;94.00;;;;;;10367686;28;20040;-90
2022/04/04 19:10:48;;;;;;;5.78;3.42;;;6.40;94.40;;;;;;10448163;28;20203;-90
2022/04/04 19:15:51;;;;;;;5.15;2.90;;;6.40;94.80;;;;;;10443649;28;20412;-89
2022/04/04 19:20:53;;;;;;;5.47;3.90;;;6.40;94.90;;;;;;10350397;28;20067;-91
2022/04/04 19:25:55;;;;;;;8.43;4.00;;;6.40;94.80;;;;;;10431405;28;20124;-90
2022/04/04 19:30:58;;;;;;;8.65;4.13;;;6.40;95.10;;;;;;10405962;28;20064;-90
2022/04/04 19:35:59;;;;;;;7.10;4.25;;;6.40;96.60;;;;;;10421341;28;20043;-91
2022/04/04 19:41:01;;;;;;;7.28;3.13;;;6.40;98.90;;;;;;10414448;28;20080;-89
2022/04/04 19:46:03;;;;;;;6.70;3.78;;;6.40;97.00;;;;;;10350142;28;20041;-91
2022/04/04 19:51:06;;;;;;;8.60;3.90;;;6.40;98.00;;;;;;10405200;28;20057;-91
2022/04/04 19:56:07;;;;;;;8.45;5.03;;;6.30;99.90;;;;;;10428477;28;20072;-90
2022/04/04 20:01:09;;;;;;;9.13;4.82;;;6.20;99.90;;;;;;10422707;28;20095;-90
2022/04/04 20:06:12;;;;;;;9.63;5.00;;;6.10;99.90;;;;;;10404534;28;20056;-90
2022/04/04 20:11:14;;;;;;;8.68;5.18;;;6.00;99.90;;;;;;10401225;28;20072;-89
2022/04/04 20:16:19;;;;;;;10.85;5.43;;;5.80;99.90;;;;;;10421652;28;20090;-90
2022/04/04 20:21:21;;;;;;;9.05;4.65;;;5.80;99.90;;;;;;10432670;28;20072;-90
2022/04/04 20:26:23;;;;;;;7.93;4.28;;;5.80;99.90;;;;;;10382285;28;20125;-90
2022/04/04 20:31:25;;;;;;;8.18;5.07;;;5.80;99.90;;;;;;10402255;28;20627;-90
2022/04/04 20:36:30;;;;;;;10.48;5.07;;;5.80;99.90;;;;;;10426956;28;20045;-90
2022/04/04 20:41:35;;;;;;;9.45;4.32;;;5.80;99.90;;;;;;10415344;28;20043;-89
2022/04/04 20:46:37;;;;;;;10.02;5.43;;;5.90;99.90;;;;;;10329825;28;20077;-90
2022/04/04 20:51:39;;;;;;;8.23;4.63;;;5.90;99.90;;;;;;10348930;28;20052;-88
2022/04/04 20:56:41;;;;;;;8.88;4.95;;;5.90;99.90;;;;;;10311842;28;20137;-88
2022/04/04 21:01:43;;;;;;;9.25;4.70;;;5.90;99.90;;;;;;10351603;28;20388;-89
2022/04/04 21:06:45;;;;;;;9.35;4.63;;;5.90;99.90;;;;;;10326087;28;20056;-88
2022/04/04 21:11:48;;;;;;;8.52;4.50;;;5.90;99.90;;;;;;10316767;28;20057;-87
2022/04/04 21:16:53;;;;;;;7.35;4.07;;;5.90;99.90;;;;;;10345477;28;20130;-89
2022/04/04 21:21:54;;;;;;;5.40;3.67;;;6.00;99.90;;;;;;10351304;28;20133;-88
2022/04/04 21:26:56;;;;;;;7.70;4.20;;;6.00;99.90;;;;;;10366410;28;20046;-88
2022/04/04 21:31:58;;;;;;;6.13;2.90;;;5.90;99.90;;;;;;10341451;28;20051;-89
2022/04/04 21:37:00;;;;;;;6.32;3.90;;;5.90;99.90;;;;;;10362098;28;20546;-88
2022/04/04 21:42:05;;;;;;;6.95;3.83;;;5.90;99.90;;;;;;10362474;28;20062;-89
2022/04/04 21:47:07;;;;;;;8.25;3.58;;;5.90;99.90;;;;;;10344969;28;20522;-88
2022/04/04 21:52:09;;;;;;;5.78;3.28;;;5.90;99.90;;;;;;10350991;28;20088;-87
2022/04/04 21:57:12;;;;;;;2.60;1.38;;;5.90;99.90;;;;;;10355839;28;20081;-87
2022/04/04 22:02:13;;;;;;;9.65;3.72;;;6.00;99.90;;;;;;10339509;28;20419;-90
2022/04/04 22:07:15;;;;;;;7.28;3.55;;;5.90;99.90;;;;;;10344499;28;20093;-89
2022/04/04 22:12:17;;;;;;;12.02;3.95;;;5.90;99.90;;;;;;10348950;28;20111;-89
2022/04/04 22:17:19;;;;;;;4.22;2.67;;;5.90;99.90;;;;;;10360473;28;20168;-89
2022/04/04 22:22:21;;;;;;;5.25;2.88;;;5.90;99.90;;;;;;10346869;28;20401;-87
2022/04/04 22:27:23;;;;;;;5.95;3.08;;;5.80;99.90;;;;;;10339642;28;20105;-89
2022/04/04 22:32:25;;;;;;;4.97;2.88;;;5.80;99.90;;;;;;10337406;28;20124;-91
2022/04/04 22:37:27;;;;;;;6.05;3.05;;;5.70;99.90;;;;;;10361049;28;20523;-91
2022/04/04 22:42:28;;;;;;;6.72;2.83;;;5.80;99.90;;;;;;10345917;28;20077;-90
2022/04/04 22:47:30;;;;;;;4.10;2.92;;;5.80;99.90;;;;;;10405727;28;20186;-89
2022/04/04 22:52:32;;;;;;;2.95;1.75;;;5.80;99.90;;;;;;10409841;28;20057;-90
2022/04/04 22:57:35;;;;;;;7.38;2.90;;;5.70;99.90;;;;;;10409085;28;20044;-90
2022/04/04 23:02:38;;;;;;;4.88;2.30;;;5.80;99.90;;;;;;10413231;28;20045;-90
2022/04/04 23:07:40;;;;;;;3.08;1.77;;;6.00;99.90;;;;;;10405764;28;20060;-89
2022/04/04 23:12:42;;;;;;;4.40;2.88;;;6.00;99.90;;;;;;10413691;28;20035;-90
2022/04/04 23:17:46;;;;;;;6.28;2.92;;;6.00;99.90;;;;;;10421243;28;20040;-90
2022/04/04 23:22:48;;;;;;;3.92;2.10;;;6.00;99.90;;;;;;10429552;28;20049;-91
2022/04/04 23:27:50;;;;;;;2.85;1.85;;;5.90;99.90;;;;;;10411748;28;20088;-91
2022/04/04 23:32:52;;;;;;;5.28;3.17;;;5.90;99.90;;;;;;10421533;28;20040;-91
2022/04/04 23:37:54;;;;;;;4.10;2.00;;;5.90;99.90;;;;;;10426966;28;20049;-90
2022/04/04 23:43:13;;;;;;;2.67;1.65;;;6.00;99.90;;;;;;10437617;28;20048;-90
2022/04/04 23:48:17;;;;;;;4.13;2.30;;;6.10;99.90;;;;;;10450356;28;20063;-90
2022/04/04 23:53:18;;;;;;;4.93;3.20;;;6.10;99.90;;;;;;10439098;28;20136;-90
2022/04/04 23:58:21;;;;;;;4.50;2.72;;;6.10;99.90;;;;;;10421740;28;20049;-91
